sensor_id;sensor_type;location;lat;lon;timestamp;pressure;altitude;pressure_sealevel;temperature
12854;BMP180;6495;51.808;7.478;2023-04-25T00:02:47;100340.00;;;8.00
12854;BMP180;6495;51.808;7.478;2023-04-25T00:05:38;100346.00;;;8.10
12854;BMP180;6495;51.808;7.478;2023-04-25T00:08:26;100341.00;;;8.00
12854;BMP180;6495;51.808;7.478;2023-04-25T00:11:15;100344.00;;;8.00
12854;BMP180;6495;51.808;7.478;2023-04-25T00:14:04;100340.00;;;8.00
12854;BMP180;6495;51.808;7.478;2023-04-25T00:16:54;100340.00;;;8.00
12854;BMP180;6495;51.808;7.478;2023-04-25T00:19:43;100352.00;;;8.00
12854;BMP180;6495;51.808;7.478;2023-04-25T00:22:35;100348.00;;;8.00
12854;BMP180;6495;51.808;7.478;2023-04-25T00:25:24;100355.00;;;8.00
12854;BMP180;6495;51.808;7.478;2023-04-25T00:28:13;100348.00;;;8.00
12854;BMP180;6495;51.808;7.478;2023-04-25T00:31:02;100349.00;;;8.10
12854;BMP180;6495;51.808;7.478;2023-04-25T00:33:51;100355.00;;;8.10
12854;BMP180;6495;51.808;7.478;2023-04-25T00:36:40;100357.00;;;8.10
12854;BMP180;6495;51.808;7.478;2023-04-25T00:39:30;100355.00;;;8.10
12854;BMP180;6495;51.808;7.478;2023-04-25T00:42:19;100352.00;;;8.10
12854;BMP180;6495;51.808;7.478;2023-04-25T00:45:12;100349.00;;;8.10
12854;BMP180;6495;51.808;7.478;2023-04-25T00:48:03;100361.00;;;8.10
12854;BMP180;6495;51.808;7.478;2023-04-25T00:50:55;100356.00;;;8.10
12854;BMP180;6495;51.808;7.478;2023-04-25T00:53:45;100357.00;;;8.10
12854;BMP180;6495;51.808;7.478;2023-04-25T00:56:36;100352.00;;;8.10
12854;BMP180;6495;51.808;7.478;2023-04-25T00:59:25;100353.00;;;8.10
12854;BMP180;6495;51.808;7.478;2023-04-25T01:02:14;100360.00;;;8.10
12854;BMP180;6495;51.808;7.478;2023-04-25T01:05:04;100362.00;;;8.10
12854;BMP180;6495;51.808;7.478;2023-04-25T01:07:53;100359.00;;;8.10
12854;BMP180;6495;51.808;7.478;2023-04-25T01:10:42;100363.00;;;8.10
12854;BMP180;6495;51.808;7.478;2023-04-25T01:13:32;100357.00;;;8.10
12854;BMP180;6495;51.808;7.478;2023-04-25T01:16:21;100361.00;;;8.10
12854;BMP180;6495;51.808;7.478;2023-04-25T01:19:11;100361.00;;;8.10
12854;BMP180;6495;51.808;7.478;2023-04-25T01:22:01;100358.00;;;8.20
12854;BMP180;6495;51.808;7.478;2023-04-25T01:24:51;100366.00;;;8.20
12854;BMP180;6495;51.808;7.478;2023-04-25T01:27:40;100360.00;;;8.20
12854;BMP180;6495;51.808;7.478;2023-04-25T01:30:30;100365.00;;;8.10
12854;BMP180;6495;51.808;7.478;2023-04-25T01:33:21;100366.00;;;8.20
12854;BMP180;6495;51.808;7.478;2023-04-25T01:36:10;100373.00;;;8.20
12854;BMP180;6495;51.808;7.478;2023-04-25T01:39:01;100370.00;;;8.20
12854;BMP180;6495;51.808;7.478;2023-04-25T01:41:50;100363.00;;;8.20
12854;BMP180;6495;51.808;7.478;2023-04-25T01:44:39;100359.00;;;8.20
12854;BMP180;6495;51.808;7.478;2023-04-25T01:47:28;100366.00;;;8.20
12854;BMP180;6495;51.808;7.478;2023-04-25T01:50:19;100368.00;;;8.20
12854;BMP180;6495;51.808;7.478;2023-04-25T01:53:09;100387.00;;;8.20
12854;BMP180;6495;51.808;7.478;2023-04-25T01:56:05;100375.00;;;8.20
12854;BMP180;6495;51.808;7.478;2023-04-25T01:58:55;100384.00;;;8.20
12854;BMP180;6495;51.808;7.478;2023-04-25T02:02:09;100386.00;;;8.20
12854;BMP180;6495;51.808;7.478;2023-04-25T02:04:58;100393.00;;;8.20
12854;BMP180;6495;51.808;7.478;2023-04-25T02:07:48;100390.00;;;8.20
12854;BMP180;6495;51.808;7.478;2023-04-25T02:10:37;100397.00;;;8.20
12854;BMP180;6495;51.808;7.478;2023-04-25T02:13:40;100396.00;;;8.20
12854;BMP180;6495;51.808;7.478;2023-04-25T02:16:47;100394.00;;;8.20
12854;BMP180;6495;51.808;7.478;2023-04-25T02:19:36;100388.00;;;8.20
12854;BMP180;6495;51.808;7.478;2023-04-25T02:22:27;100393.00;;;8.20
12854;BMP180;6495;51.808;7.478;2023-04-25T02:25:18;100397.00;;;8.10
12854;BMP180;6495;51.808;7.478;2023-04-25T02:28:07;100408.00;;;8.10
12854;BMP180;6495;51.808;7.478;2023-04-25T02:30:58;100410.00;;;8.10
12854;BMP180;6495;51.808;7.478;2023-04-25T02:33:48;100411.00;;;8.10
12854;BMP180;6495;51.808;7.478;2023-04-25T02:36:37;100411.00;;;8.20
12854;BMP180;6495;51.808;7.478;2023-04-25T02:39:26;100421.00;;;8.20
12854;BMP180;6495;51.808;7.478;2023-04-25T02:42:16;100428.00;;;8.20
12854;BMP180;6495;51.808;7.478;2023-04-25T02:45:05;100429.00;;;8.20
12854;BMP180;6495;51.808;7.478;2023-04-25T02:47:55;100427.00;;;8.20
12854;BMP180;6495;51.808;7.478;2023-04-25T02:50:44;100437.00;;;8.20
12854;BMP180;6495;51.808;7.478;2023-04-25T02:53:33;100432.00;;;8.10
12854;BMP180;6495;51.808;7.478;2023-04-25T02:56:22;100430.00;;;8.10
12854;BMP180;6495;51.808;7.478;2023-04-25T02:59:10;100432.00;;;8.10
12854;BMP180;6495;51.808;7.478;2023-04-25T03:01:59;100435.00;;;8.00
12854;BMP180;6495;51.808;7.478;2023-04-25T03:04:49;100439.00;;;8.10
12854;BMP180;6495;51.808;7.478;2023-04-25T03:07:38;100426.00;;;8.10
12854;BMP180;6495;51.808;7.478;2023-04-25T03:10:29;100433.00;;;8.10
12854;BMP180;6495;51.808;7.478;2023-04-25T03:13:22;100443.00;;;8.10
12854;BMP180;6495;51.808;7.478;2023-04-25T03:16:11;100437.00;;;8.10
12854;BMP180;6495;51.808;7.478;2023-04-25T03:19:00;100442.00;;;8.10
12854;BMP180;6495;51.808;7.478;2023-04-25T03:21:50;100444.00;;;8.10
12854;BMP180;6495;51.808;7.478;2023-04-25T03:24:39;100447.00;;;8.10
12854;BMP180;6495;51.808;7.478;2023-04-25T03:27:28;100448.00;;;8.10
12854;BMP180;6495;51.808;7.478;2023-04-25T03:30:16;100447.00;;;8.00
12854;BMP180;6495;51.808;7.478;2023-04-25T03:33:05;100448.00;;;8.00
12854;BMP180;6495;51.808;7.478;2023-04-25T03:35:54;100448.00;;;8.00
12854;BMP180;6495;51.808;7.478;2023-04-25T03:38:44;100456.00;;;7.90
12854;BMP180;6495;51.808;7.478;2023-04-25T03:41:35;100450.00;;;7.90
12854;BMP180;6495;51.808;7.478;2023-04-25T03:44:29;100451.00;;;7.90
12854;BMP180;6495;51.808;7.478;2023-04-25T03:47:19;100461.00;;;7.90
12854;BMP180;6495;51.808;7.478;2023-04-25T03:50:09;100473.00;;;7.90
12854;BMP180;6495;51.808;7.478;2023-04-25T03:52:58;100465.00;;;7.90
12854;BMP180;6495;51.808;7.478;2023-04-25T03:55:53;100458.00;;;7.90
12854;BMP180;6495;51.808;7.478;2023-04-25T03:58:42;100469.00;;;7.90
12854;BMP180;6495;51.808;7.478;2023-04-25T04:01:30;100458.00;;;7.90
12854;BMP180;6495;51.808;7.478;2023-04-25T04:04:19;100463.00;;;7.90
12854;BMP180;6495;51.808;7.478;2023-04-25T04:07:09;100469.00;;;7.90
12854;BMP180;6495;51.808;7.478;2023-04-25T04:10:01;100476.00;;;7.90
12854;BMP180;6495;51.808;7.478;2023-04-25T04:12:57;100472.00;;;7.90
12854;BMP180;6495;51.808;7.478;2023-04-25T04:15:45;100479.00;;;8.00
12854;BMP180;6495;51.808;7.478;2023-04-25T04:18:35;100489.00;;;7.90
12854;BMP180;6495;51.808;7.478;2023-04-25T04:21:24;100488.00;;;8.00
12854;BMP180;6495;51.808;7.478;2023-04-25T04:24:14;100485.00;;;7.90
12854;BMP180;6495;51.808;7.478;2023-04-25T04:27:12;100491.00;;;7.90
12854;BMP180;6495;51.808;7.478;2023-04-25T04:30:09;100495.00;;;7.90
12854;BMP180;6495;51.808;7.478;2023-04-25T04:33:07;100491.00;;;7.90
12854;BMP180;6495;51.808;7.478;2023-04-25T04:35:57;100495.00;;;7.90
12854;BMP180;6495;51.808;7.478;2023-04-25T04:38:47;100500.00;;;7.80
12854;BMP180;6495;51.808;7.478;2023-04-25T04:41:51;100494.00;;;7.80
12854;BMP180;6495;51.808;7.478;2023-04-25T04:45:00;100504.00;;;7.80
12854;BMP180;6495;51.808;7.478;2023-04-25T04:48:18;100507.00;;;7.80
12854;BMP180;6495;51.808;7.478;2023-04-25T04:51:27;100505.00;;;7.80
12854;BMP180;6495;51.808;7.478;2023-04-25T04:54:44;100512.00;;;7.80
12854;BMP180;6495;51.808;7.478;2023-04-25T04:57:37;100522.00;;;7.80
12854;BMP180;6495;51.808;7.478;2023-04-25T05:00:40;100522.00;;;7.80
12854;BMP180;6495;51.808;7.478;2023-04-25T05:03:49;100518.00;;;7.80
12854;BMP180;6495;51.808;7.478;2023-04-25T05:06:54;100526.00;;;7.80
12854;BMP180;6495;51.808;7.478;2023-04-25T05:10:10;100528.00;;;7.80
12854;BMP180;6495;51.808;7.478;2023-04-25T05:13:22;100536.00;;;7.80
12854;BMP180;6495;51.808;7.478;2023-04-25T05:16:30;100535.00;;;7.80
12854;BMP180;6495;51.808;7.478;2023-04-25T05:19:45;100536.00;;;7.80
12854;BMP180;6495;51.808;7.478;2023-04-25T05:23:03;100550.00;;;7.80
12854;BMP180;6495;51.808;7.478;2023-04-25T05:26:11;100546.00;;;7.80
12854;BMP180;6495;51.808;7.478;2023-04-25T05:29:11;100550.00;;;7.80
12854;BMP180;6495;51.808;7.478;2023-04-25T05:32:29;100567.00;;;7.80
12854;BMP180;6495;51.808;7.478;2023-04-25T05:35:19;100560.00;;;7.90
12854;BMP180;6495;51.808;7.478;2023-04-25T05:38:10;100560.00;;;7.90
12854;BMP180;6495;51.808;7.478;2023-04-25T05:41:21;100562.00;;;7.90
12854;BMP180;6495;51.808;7.478;2023-04-25T05:44:20;100566.00;;;7.80
12854;BMP180;6495;51.808;7.478;2023-04-25T05:47:23;100568.00;;;7.80
12854;BMP180;6495;51.808;7.478;2023-04-25T05:50:42;100578.00;;;7.80
12854;BMP180;6495;51.808;7.478;2023-04-25T05:53:58;100583.00;;;7.80
12854;BMP180;6495;51.808;7.478;2023-04-25T05:56:48;100583.00;;;7.80
12854;BMP180;6495;51.808;7.478;2023-04-25T05:59:37;100586.00;;;7.70
12854;BMP180;6495;51.808;7.478;2023-04-25T06:02:26;100590.00;;;7.70
12854;BMP180;6495;51.808;7.478;2023-04-25T06:05:15;100589.00;;;7.70
12854;BMP180;6495;51.808;7.478;2023-04-25T06:08:08;100590.00;;;7.80
12854;BMP180;6495;51.808;7.478;2023-04-25T06:10:57;100592.00;;;7.90
12854;BMP180;6495;51.808;7.478;2023-04-25T06:13:46;100600.00;;;7.90
12854;BMP180;6495;51.808;7.478;2023-04-25T06:16:36;100603.00;;;8.00
12854;BMP180;6495;51.808;7.478;2023-04-25T06:19:25;100608.00;;;8.10
12854;BMP180;6495;51.808;7.478;2023-04-25T06:22:14;100610.00;;;8.10
12854;BMP180;6495;51.808;7.478;2023-04-25T06:25:05;100619.00;;;8.10
12854;BMP180;6495;51.808;7.478;2023-04-25T06:27:54;100616.00;;;8.10
12854;BMP180;6495;51.808;7.478;2023-04-25T06:30:43;100623.00;;;8.10
12854;BMP180;6495;51.808;7.478;2023-04-25T06:33:36;100622.00;;;8.10
12854;BMP180;6495;51.808;7.478;2023-04-25T06:36:25;100622.00;;;8.10
12854;BMP180;6495;51.808;7.478;2023-04-25T06:39:21;100630.00;;;8.10
12854;BMP180;6495;51.808;7.478;2023-04-25T06:42:12;100633.00;;;8.10
12854;BMP180;6495;51.808;7.478;2023-04-25T06:45:12;100637.00;;;8.10
12854;BMP180;6495;51.808;7.478;2023-04-25T06:48:01;100629.00;;;8.10
12854;BMP180;6495;51.808;7.478;2023-04-25T06:50:50;100643.00;;;8.20
12854;BMP180;6495;51.808;7.478;2023-04-25T06:53:39;100647.00;;;8.20
12854;BMP180;6495;51.808;7.478;2023-04-25T06:56:31;100645.00;;;8.10
12854;BMP180;6495;51.808;7.478;2023-04-25T06:59:30;100644.00;;;8.20
12854;BMP180;6495;51.808;7.478;2023-04-25T07:02:20;100645.00;;;8.30
12854;BMP180;6495;51.808;7.478;2023-04-25T07:05:10;100641.00;;;8.30
12854;BMP180;6495;51.808;7.478;2023-04-25T07:07:59;100636.00;;;8.40
12854;BMP180;6495;51.808;7.478;2023-04-25T07:10:48;100650.00;;;8.50
12854;BMP180;6495;51.808;7.478;2023-04-25T07:13:37;100647.00;;;8.50
12854;BMP180;6495;51.808;7.478;2023-04-25T07:16:28;100650.00;;;8.60
12854;BMP180;6495;51.808;7.478;2023-04-25T07:19:17;100653.00;;;8.70
12854;BMP180;6495;51.808;7.478;2023-04-25T07:22:06;100651.00;;;8.80
12854;BMP180;6495;51.808;7.478;2023-04-25T07:24:57;100657.00;;;8.80
12854;BMP180;6495;51.808;7.478;2023-04-25T07:27:48;100652.00;;;8.90
12854;BMP180;6495;51.808;7.478;2023-04-25T07:30:39;100662.00;;;8.90
12854;BMP180;6495;51.808;7.478;2023-04-25T07:33:29;100657.00;;;9.00
12854;BMP180;6495;51.808;7.478;2023-04-25T07:36:17;100669.00;;;9.00
12854;BMP180;6495;51.808;7.478;2023-04-25T07:39:06;100678.00;;;9.10
12854;BMP180;6495;51.808;7.478;2023-04-25T07:41:56;100667.00;;;9.10
12854;BMP180;6495;51.808;7.478;2023-04-25T07:44:49;100670.00;;;9.20
12854;BMP180;6495;51.808;7.478;2023-04-25T07:47:39;100677.00;;;9.20
12854;BMP180;6495;51.808;7.478;2023-04-25T07:50:29;100682.00;;;9.20
12854;BMP180;6495;51.808;7.478;2023-04-25T07:53:18;100694.00;;;9.30
12854;BMP180;6495;51.808;7.478;2023-04-25T07:56:12;100683.00;;;9.40
12854;BMP180;6495;51.808;7.478;2023-04-25T07:59:04;100689.00;;;9.40
12854;BMP180;6495;51.808;7.478;2023-04-25T08:01:53;100693.00;;;9.50
12854;BMP180;6495;51.808;7.478;2023-04-25T08:04:42;100693.00;;;9.50
12854;BMP180;6495;51.808;7.478;2023-04-25T08:07:34;100690.00;;;9.60
12854;BMP180;6495;51.808;7.478;2023-04-25T08:10:25;100703.00;;;9.60
12854;BMP180;6495;51.808;7.478;2023-04-25T08:13:14;100708.00;;;9.60
12854;BMP180;6495;51.808;7.478;2023-04-25T08:16:04;100714.00;;;9.60
12854;BMP180;6495;51.808;7.478;2023-04-25T08:18:54;100712.00;;;9.70
12854;BMP180;6495;51.808;7.478;2023-04-25T08:21:43;100724.00;;;9.70
12854;BMP180;6495;51.808;7.478;2023-04-25T08:24:37;100723.00;;;9.80
12854;BMP180;6495;51.808;7.478;2023-04-25T08:27:27;100730.00;;;9.70
12854;BMP180;6495;51.808;7.478;2023-04-25T08:30:16;100736.00;;;9.70
12854;BMP180;6495;51.808;7.478;2023-04-25T08:33:06;100742.00;;;9.70
12854;BMP180;6495;51.808;7.478;2023-04-25T08:36:13;100742.00;;;9.60
12854;BMP180;6495;51.808;7.478;2023-04-25T08:39:22;100750.00;;;9.70
12854;BMP180;6495;51.808;7.478;2023-04-25T08:42:40;100748.00;;;9.70
12854;BMP180;6495;51.808;7.478;2023-04-25T08:45:32;100750.00;;;9.70
12854;BMP180;6495;51.808;7.478;2023-04-25T08:48:26;100756.00;;;9.70
12854;BMP180;6495;51.808;7.478;2023-04-25T08:51:23;100746.00;;;9.80
12854;BMP180;6495;51.808;7.478;2023-04-25T08:54:14;100762.00;;;9.90
12854;BMP180;6495;51.808;7.478;2023-04-25T08:57:21;100766.00;;;10.00
12854;BMP180;6495;51.808;7.478;2023-04-25T09:00:13;100775.00;;;10.00
12854;BMP180;6495;51.808;7.478;2023-04-25T09:03:04;100783.00;;;10.00
12854;BMP180;6495;51.808;7.478;2023-04-25T09:05:55;100782.00;;;10.10
12854;BMP180;6495;51.808;7.478;2023-04-25T09:08:43;100784.00;;;10.20
12854;BMP180;6495;51.808;7.478;2023-04-25T09:11:32;100784.00;;;10.20
12854;BMP180;6495;51.808;7.478;2023-04-25T09:14:24;100796.00;;;10.40
12854;BMP180;6495;51.808;7.478;2023-04-25T09:17:25;100798.00;;;10.60
12854;BMP180;6495;51.808;7.478;2023-04-25T09:20:16;100797.00;;;10.80
12854;BMP180;6495;51.808;7.478;2023-04-25T09:23:05;100798.00;;;10.80
12854;BMP180;6495;51.808;7.478;2023-04-25T09:25:57;100800.00;;;10.80
12854;BMP180;6495;51.808;7.478;2023-04-25T09:28:46;100802.00;;;11.00
12854;BMP180;6495;51.808;7.478;2023-04-25T09:31:38;100799.00;;;11.10
12854;BMP180;6495;51.808;7.478;2023-04-25T09:34:42;100807.00;;;11.30
12854;BMP180;6495;51.808;7.478;2023-04-25T09:37:32;100807.00;;;11.40
12854;BMP180;6495;51.808;7.478;2023-04-25T09:40:40;100811.00;;;11.40
12854;BMP180;6495;51.808;7.478;2023-04-25T09:43:42;100818.00;;;11.50
12854;BMP180;6495;51.808;7.478;2023-04-25T09:46:34;100812.00;;;11.40
12854;BMP180;6495;51.808;7.478;2023-04-25T09:49:34;100824.00;;;11.40
12854;BMP180;6495;51.808;7.478;2023-04-25T09:52:26;100816.00;;;11.30
12854;BMP180;6495;51.808;7.478;2023-04-25T09:55:30;100829.00;;;11.10
12854;BMP180;6495;51.808;7.478;2023-04-25T09:58:20;100834.00;;;11.00
12854;BMP180;6495;51.808;7.478;2023-04-25T10:01:10;100828.00;;;10.90
12854;BMP180;6495;51.808;7.478;2023-04-25T10:04:23;100836.00;;;10.90
12854;BMP180;6495;51.808;7.478;2023-04-25T10:07:30;100832.00;;;11.00
12854;BMP180;6495;51.808;7.478;2023-04-25T10:10:21;100854.00;;;11.00
12854;BMP180;6495;51.808;7.478;2023-04-25T10:13:13;100847.00;;;11.00
12854;BMP180;6495;51.808;7.478;2023-04-25T10:16:04;100848.00;;;11.00
12854;BMP180;6495;51.808;7.478;2023-04-25T10:18:53;100856.00;;;11.10
12854;BMP180;6495;51.808;7.478;2023-04-25T10:21:50;100848.00;;;11.10
12854;BMP180;6495;51.808;7.478;2023-04-25T10:24:42;100853.00;;;11.00
12854;BMP180;6495;51.808;7.478;2023-04-25T10:27:32;100855.00;;;11.00
12854;BMP180;6495;51.808;7.478;2023-04-25T10:30:20;100853.00;;;11.00
12854;BMP180;6495;51.808;7.478;2023-04-25T10:33:17;100865.00;;;11.00
12854;BMP180;6495;51.808;7.478;2023-04-25T10:36:11;100868.00;;;11.00
12854;BMP180;6495;51.808;7.478;2023-04-25T10:39:04;100868.00;;;11.00
12854;BMP180;6495;51.808;7.478;2023-04-25T10:41:59;100865.00;;;11.10
12854;BMP180;6495;51.808;7.478;2023-04-25T10:45:02;100879.00;;;11.10
12854;BMP180;6495;51.808;7.478;2023-04-25T10:47:52;100871.00;;;11.20
12854;BMP180;6495;51.808;7.478;2023-04-25T10:50:42;100869.00;;;11.30
12854;BMP180;6495;51.808;7.478;2023-04-25T10:53:33;100875.00;;;11.40
12854;BMP180;6495;51.808;7.478;2023-04-25T10:56:25;100876.00;;;11.50
12854;BMP180;6495;51.808;7.478;2023-04-25T10:59:17;100877.00;;;11.50
12854;BMP180;6495;51.808;7.478;2023-04-25T11:02:12;100872.00;;;11.60
12854;BMP180;6495;51.808;7.478;2023-04-25T11:05:02;100864.00;;;11.60
12854;BMP180;6495;51.808;7.478;2023-04-25T11:07:53;100861.00;;;11.80
12854;BMP180;6495;51.808;7.478;2023-04-25T11:10:55;100868.00;;;11.90
12854;BMP180;6495;51.808;7.478;2023-04-25T11:13:47;100864.00;;;12.00
12854;BMP180;6495;51.808;7.478;2023-04-25T11:16:38;100869.00;;;12.10
12854;BMP180;6495;51.808;7.478;2023-04-25T11:19:27;100864.00;;;12.20
12854;BMP180;6495;51.808;7.478;2023-04-25T11:22:16;100872.00;;;12.40
12854;BMP180;6495;51.808;7.478;2023-04-25T11:25:07;100870.00;;;12.40
12854;BMP180;6495;51.808;7.478;2023-04-25T11:27:58;100869.00;;;12.40
12854;BMP180;6495;51.808;7.478;2023-04-25T11:30:49;100867.00;;;12.60
12854;BMP180;6495;51.808;7.478;2023-04-25T11:33:40;100870.00;;;12.70
12854;BMP180;6495;51.808;7.478;2023-04-25T11:36:30;100871.00;;;12.80
12854;BMP180;6495;51.808;7.478;2023-04-25T11:39:20;100867.00;;;12.90
12854;BMP180;6495;51.808;7.478;2023-04-25T11:42:09;100877.00;;;12.90
12854;BMP180;6495;51.808;7.478;2023-04-25T11:45:00;100881.00;;;13.10
12854;BMP180;6495;51.808;7.478;2023-04-25T11:47:49;100882.00;;;13.10
12854;BMP180;6495;51.808;7.478;2023-04-25T11:50:40;100886.00;;;13.10
12854;BMP180;6495;51.808;7.478;2023-04-25T11:53:29;100889.00;;;13.00
12854;BMP180;6495;51.808;7.478;2023-04-25T11:56:18;100908.00;;;12.80
12854;BMP180;6495;51.808;7.478;2023-04-25T11:59:07;100917.00;;;12.50
12854;BMP180;6495;51.808;7.478;2023-04-25T12:01:57;100932.00;;;12.10
12854;BMP180;6495;51.808;7.478;2023-04-25T12:04:49;100938.00;;;11.80
12854;BMP180;6495;51.808;7.478;2023-04-25T12:07:39;100926.00;;;11.40
12854;BMP180;6495;51.808;7.478;2023-04-25T12:10:30;100930.00;;;11.00
12854;BMP180;6495;51.808;7.478;2023-04-25T12:13:21;100934.00;;;10.80
12854;BMP180;6495;51.808;7.478;2023-04-25T12:16:10;100939.00;;;10.60
12854;BMP180;6495;51.808;7.478;2023-04-25T12:18:59;100950.00;;;10.50
12854;BMP180;6495;51.808;7.478;2023-04-25T12:21:49;100947.00;;;10.40
12854;BMP180;6495;51.808;7.478;2023-04-25T12:24:45;100949.00;;;10.40
12854;BMP180;6495;51.808;7.478;2023-04-25T12:27:33;100946.00;;;10.30
12854;BMP180;6495;51.808;7.478;2023-04-25T12:30:24;100947.00;;;10.30
12854;BMP180;6495;51.808;7.478;2023-04-25T12:33:12;100938.00;;;10.40
12854;BMP180;6495;51.808;7.478;2023-04-25T12:36:03;100936.00;;;10.40
12854;BMP180;6495;51.808;7.478;2023-04-25T12:38:55;100933.00;;;10.50
12854;BMP180;6495;51.808;7.478;2023-04-25T12:41:48;100938.00;;;10.50
12854;BMP180;6495;51.808;7.478;2023-04-25T12:44:41;100940.00;;;10.60
12854;BMP180;6495;51.808;7.478;2023-04-25T12:47:37;100936.00;;;10.60
12854;BMP180;6495;51.808;7.478;2023-04-25T12:50:25;100926.00;;;10.70
12854;BMP180;6495;51.808;7.478;2023-04-25T12:53:14;100926.00;;;10.90
12854;BMP180;6495;51.808;7.478;2023-04-25T12:56:04;100933.00;;;11.10
12854;BMP180;6495;51.808;7.478;2023-04-25T12:58:55;100924.00;;;11.20
12854;BMP180;6495;51.808;7.478;2023-04-25T13:01:45;100925.00;;;11.30
12854;BMP180;6495;51.808;7.478;2023-04-25T13:04:35;100920.00;;;11.50
12854;BMP180;6495;51.808;7.478;2023-04-25T13:11:55;100920.00;;;11.60
12854;BMP180;6495;51.808;7.478;2023-04-25T13:15:36;100922.00;;;11.60
12854;BMP180;6495;51.808;7.478;2023-04-25T13:18:42;100924.00;;;11.70
12854;BMP180;6495;51.808;7.478;2023-04-25T13:29:11;100913.00;;;11.90
12854;BMP180;6495;51.808;7.478;2023-04-25T13:51:51;100928.00;;;12.40
12854;BMP180;6495;51.808;7.478;2023-04-25T14:16:52;100991.00;;;11.30
12854;BMP180;6495;51.808;7.478;2023-04-25T14:19:42;100989.00;;;11.30
12854;BMP180;6495;51.808;7.478;2023-04-25T14:22:32;100985.00;;;11.30
12854;BMP180;6495;51.808;7.478;2023-04-25T14:25:22;100985.00;;;11.40
12854;BMP180;6495;51.808;7.478;2023-04-25T14:28:11;100982.00;;;11.50
12854;BMP180;6495;51.808;7.478;2023-04-25T14:35:06;100974.00;;;11.70
12854;BMP180;6495;51.808;7.478;2023-04-25T14:37:57;100981.00;;;11.80
12854;BMP180;6495;51.808;7.478;2023-04-25T14:40:51;100967.00;;;11.90
12854;BMP180;6495;51.808;7.478;2023-04-25T14:43:41;100969.00;;;12.00
12854;BMP180;6495;51.808;7.478;2023-04-25T14:46:29;100971.00;;;12.10
12854;BMP180;6495;51.808;7.478;2023-04-25T14:49:18;100966.00;;;12.30
12854;BMP180;6495;51.808;7.478;2023-04-25T14:52:08;100974.00;;;12.40
12854;BMP180;6495;51.808;7.478;2023-04-25T14:54:57;100971.00;;;12.40
12854;BMP180;6495;51.808;7.478;2023-04-25T14:57:47;100980.00;;;12.50
12854;BMP180;6495;51.808;7.478;2023-04-25T15:00:35;100972.00;;;12.50
12854;BMP180;6495;51.808;7.478;2023-04-25T15:03:24;100976.00;;;12.60
12854;BMP180;6495;51.808;7.478;2023-04-25T15:06:13;100971.00;;;12.80
12854;BMP180;6495;51.808;7.478;2023-04-25T15:09:03;100980.00;;;12.80
12854;BMP180;6495;51.808;7.478;2023-04-25T15:11:52;100980.00;;;12.90
12854;BMP180;6495;51.808;7.478;2023-04-25T15:14:41;100984.00;;;12.90
12854;BMP180;6495;51.808;7.478;2023-04-25T15:17:29;100981.00;;;12.90
12854;BMP180;6495;51.808;7.478;2023-04-25T15:20:19;100985.00;;;13.00
12854;BMP180;6495;51.808;7.478;2023-04-25T15:23:07;100984.00;;;13.10
12854;BMP180;6495;51.808;7.478;2023-04-25T15:25:57;100982.00;;;13.10
12854;BMP180;6495;51.808;7.478;2023-04-25T15:28:46;100985.00;;;13.10
12854;BMP180;6495;51.808;7.478;2023-04-25T15:31:36;100985.00;;;13.00
12854;BMP180;6495;51.808;7.478;2023-04-25T15:34:24;100975.00;;;12.80
12854;BMP180;6495;51.808;7.478;2023-04-25T15:37:13;100970.00;;;12.70
12854;BMP180;6495;51.808;7.478;2023-04-25T15:40:05;100976.00;;;12.60
12854;BMP180;6495;51.808;7.478;2023-04-25T15:42:57;100984.00;;;12.40
12854;BMP180;6495;51.808;7.478;2023-04-25T15:45:46;100977.00;;;12.40
12854;BMP180;6495;51.808;7.478;2023-04-25T15:48:36;100985.00;;;12.30
12854;BMP180;6495;51.808;7.478;2023-04-25T15:51:24;100983.00;;;12.20
12854;BMP180;6495;51.808;7.478;2023-04-25T15:54:14;100989.00;;;12.20
12854;BMP180;6495;51.808;7.478;2023-04-25T15:57:04;100990.00;;;12.30
12854;BMP180;6495;51.808;7.478;2023-04-25T15:59:55;100985.00;;;12.40
12854;BMP180;6495;51.808;7.478;2023-04-25T16:02:45;100986.00;;;12.50
12854;BMP180;6495;51.808;7.478;2023-04-25T16:05:34;100981.00;;;12.40
12854;BMP180;6495;51.808;7.478;2023-04-25T16:08:23;100980.00;;;12.30
12854;BMP180;6495;51.808;7.478;2023-04-25T16:11:15;100982.00;;;12.30
12854;BMP180;6495;51.808;7.478;2023-04-25T16:14:08;100980.00;;;12.20
12854;BMP180;6495;51.808;7.478;2023-04-25T16:16:58;100987.00;;;12.00
12854;BMP180;6495;51.808;7.478;2023-04-25T16:19:47;100980.00;;;12.00
12854;BMP180;6495;51.808;7.478;2023-04-25T16:22:38;100979.00;;;12.00
12854;BMP180;6495;51.808;7.478;2023-04-25T16:25:27;100980.00;;;12.10
12854;BMP180;6495;51.808;7.478;2023-04-25T16:28:16;100979.00;;;12.10
12854;BMP180;6495;51.808;7.478;2023-04-25T16:31:04;100984.00;;;12.20
12854;BMP180;6495;51.808;7.478;2023-04-25T16:33:55;100978.00;;;12.30
12854;BMP180;6495;51.808;7.478;2023-04-25T16:36:45;100982.00;;;12.30
12854;BMP180;6495;51.808;7.478;2023-04-25T16:43:44;101004.00;;;12.00
12854;BMP180;6495;51.808;7.478;2023-04-25T16:46:32;101011.00;;;11.80
12854;BMP180;6495;51.808;7.478;2023-04-25T16:49:25;101012.00;;;11.70
12854;BMP180;6495;51.808;7.478;2023-04-25T16:52:14;101017.00;;;11.60
12854;BMP180;6495;51.808;7.478;2023-04-25T16:55:03;101013.00;;;11.50
12854;BMP180;6495;51.808;7.478;2023-04-25T16:57:52;101010.00;;;11.40
12854;BMP180;6495;51.808;7.478;2023-04-25T17:00:41;101020.00;;;11.40
12854;BMP180;6495;51.808;7.478;2023-04-25T17:03:41;101015.00;;;11.40
12854;BMP180;6495;51.808;7.478;2023-04-25T17:06:31;101024.00;;;11.30
12854;BMP180;6495;51.808;7.478;2023-04-25T17:09:21;101017.00;;;11.20
12854;BMP180;6495;51.808;7.478;2023-04-25T17:12:09;101030.00;;;11.20
12854;BMP180;6495;51.808;7.478;2023-04-25T17:14:58;101029.00;;;11.20
12854;BMP180;6495;51.808;7.478;2023-04-25T17:36:08;101055.00;;;11.00
12854;BMP180;6495;51.808;7.478;2023-04-25T17:38:56;101058.00;;;11.00
12854;BMP180;6495;51.808;7.478;2023-04-25T17:41:45;101061.00;;;10.90
12854;BMP180;6495;51.808;7.478;2023-04-25T17:44:34;101063.00;;;10.80
12854;BMP180;6495;51.808;7.478;2023-04-25T17:47:22;101058.00;;;10.80
12854;BMP180;6495;51.808;7.478;2023-04-25T17:50:11;101047.00;;;10.60
12854;BMP180;6495;51.808;7.478;2023-04-25T17:53:04;101061.00;;;10.50
12854;BMP180;6495;51.808;7.478;2023-04-25T17:55:52;101066.00;;;10.50
12854;BMP180;6495;51.808;7.478;2023-04-25T17:58:42;101061.00;;;10.40
12854;BMP180;6495;51.808;7.478;2023-04-25T18:01:31;101067.00;;;10.40
12854;BMP180;6495;51.808;7.478;2023-04-25T18:04:19;101073.00;;;10.40